Main page

Airports :

Nice, France

Nice Côte d'Azur Airport

latitude: 43-39N, longitude: 007-12E, elevation: 4 m

Current weather observation

The report was made 32 minutes ago, at 04:30 UTC
Wind 10 kt from the North/Northwest, varying between North/Northwest and North/Northeast
Temperature 6°C
Humidity 65%
Pressure 1001 hPa
Visibility 10 km or more
Few clouds at a height of 2300 ft

METAR: LFMN 260430Z 34010KT 330V030 9999 FEW023 06/M00 Q1001 NOSIG

Time: 06:02 (05:02 UTC)


The report was made 6 hours and 2 minutes ago, at 23:00 UTC
Forecast valid from 26 at 00 UTC to 27 at 06 UTC
Wind 10 kt from the North/Northwest
Visibility 10 km or more
no clouds below 1500 m and no cumulonimbus
from 26 at 10 UTC to 26 at 12 UTC
Wind 5 kt from the Southwest
from 26 at 17 UTC to 26 at 19 UTC
Wind 10 kt from the North/Northwest

TAF: LFMN 252300Z 2600/2706 34010KT CAVOK BECMG 2610/2612 22005KT BECMG 2617/2619 34010KT


Weather observations and forecasts of more than 4000 airports (METAR and TAF reports).

The available stations are represented by yellow and red dots on the map.

Hover mouse over dot to see the name of the station.

Then click to see weather observations and forecasts.

To change the map : click on the green buttons with a black cross to zoom in, on the green button with a dash to zoom out, or on the green arrows for adjacent maps.